Grahn, KY (41142)

9:41 PM EDT on August 23, 2016 (GMT -0400)
Green | | Change Station

Elev 883 ft 38.19 °N, 83.08 °W | Updated 2 minutes ago

Clear
Clear
68.7 °F
Feels Like 68.7 °F
N
0.0
Wind Variable Wind from North
Gusts 0.0 mph

Today
High -- | Low -- °F
--% Chance of Precip.
Yesterday
High -- | Low -- °F
Precip. -- in
Pressure 30.23 in
Visibility 10.0 miles
Clouds Clear
Dew Point 45 °F
Humidity 42%
Rainfall Not available.
Snow Depth Not available.
6:54 AM 8:14 PM
Waning Gibbous, 62% visible
METAR KHTS 240051Z 08003KT 10SM CLR 23/17 A3024 RMK AO2 SLP236 T02280172
Pressure 30.23 in
Visibility 10.0 miles
Clouds Clear
Dew Point 45 °F
Humidity 42%
Rainfall Not available.
Snow Depth Not available.
6:54 AM 8:14 PM
Waning Gibbous, 62% visible
METAR KHTS 240051Z 08003KT 10SM CLR 23/17 A3024 RMK AO2 SLP236 T02280172

10-Day Weather Forecast

Almanac

Astronomy

Aug. 23, 2016 Rise Set
Actual Time
Civil Twilight
Nautical Twilight
Astronomical Twilight
Moon
Length of Visible Light
Length of Day
Tomorrow will be .
, % of the Moon is Illuminated

Today's Extremes

State Highs State Lows

Community

WunderPhotos

Upload Photos

1,934,520 photos uploaded!

WunderBlog® & News

Nearby

Air Quality

  Air Quality AQ Index Pollutant
Not available.

Snow Depth

Station Depth Elevation

Earthquake Activity

City Distance Mag. Time & Date
Minimum magnitude displayed is 2.5.

Coastal Water Temperatures

Place Temperature

Stations

Nearby Weather Stations

Station Location Temp. Windchill Dew Point Humidity Wind Precip. Elev Updated Type
                   

Watches & Warnings

There are currently no watches in effect.